Time;durP1;ratioP1;P1;durP2;ratioP2;P2;SDS_P1;SDS_P2;PMS_P1;PMS_P2;Temp;Humidity;BMP_temperature;BMP_pressure;BME280_temperature;BME280_humidity;BME280_pressure;Samples;Min_cycle;Max_cycle;Signal;HPM_P1;HPM_P2
2022/10/11 00:02:26;;;;;;;;;;;19.40;1.00;;;;;;5036061;28;19932;-52
2022/10/11 00:04:52;;;;;;;;;;;19.30;1.00;;;;;;5036643;28;19921;-58
2022/10/11 00:07:19;;;;;;;;;;;19.30;1.00;;;;;;5036079;28;19921;-53
2022/10/11 00:09:46;;;;;;;;;;;19.30;1.00;;;;;;5036663;28;19925;-57
2022/10/11 00:12:12;;;;;;;;;;;19.30;1.00;;;;;;5036073;28;19944;-53
2022/10/11 00:14:39;;;;;;;;;;;19.40;1.00;;;;;;5036135;28;19975;-56
2022/10/11 00:17:09;;;;;;;;;;;19.30;1.00;;;;;;5036127;28;19977;-55
2022/10/11 00:19:35;;;;;;;;;;;19.30;1.00;;;;;;5035850;28;19989;-55
2022/10/11 00:22:02;;;;;;;;;;;19.30;1.00;;;;;;5035585;28;19921;-55
2022/10/11 00:24:29;;;;;;;;;;;19.30;1.00;;;;;;5035824;28;19971;-53
2022/10/11 00:26:55;;;;;;;;;;;19.30;1.00;;;;;;5035869;28;19925;-56
2022/10/11 00:29:22;;;;;;;;;;;19.30;1.00;;;;;;5034462;28;19921;-55
2022/10/11 00:31:49;;;;;;;;;;;19.30;1.00;;;;;;5035649;28;19921;-49
2022/10/11 00:34:16;;;;;;;;;;;19.30;1.00;;;;;;5036286;28;19921;-48
2022/10/11 00:36:44;;;;;;;;;;;19.30;1.00;;;;;;5035437;28;19920;-52
2022/10/11 00:39:11;;;;;;;;;;;19.30;1.00;;;;;;5035861;28;20274;-47
2022/10/11 00:41:40;;;;;;;;;;;19.30;1.00;;;;;;5035201;28;20449;-47
2022/10/11 00:44:14;;;;;;;;;;;19.30;1.00;;;;;;5035445;28;19921;-47
2022/10/11 00:47:01;;;;;;;;;;;19.30;1.00;;;;;;5035574;28;19921;-53
2022/10/11 00:49:39;;;;;;;;;;;19.20;1.00;;;;;;5035778;28;20095;-51
2022/10/11 00:52:13;;;;;;;;;;;19.20;1.00;;;;;;5035288;28;19925;-49
2022/10/11 00:54:41;;;;;;;;;;;19.20;1.00;;;;;;5035599;28;19921;-47
2022/10/11 00:57:12;;;;;;;;;;;19.30;1.00;;;;;;5035285;28;19971;-50
2022/10/11 00:59:41;;;;;;;;;;;19.30;1.00;;;;;;5035200;28;20337;-49
2022/10/11 01:02:09;;;;;;;;;;;19.20;1.00;;;;;;5034922;28;20359;-49
2022/10/11 01:04:36;;;;;;;;;;;19.20;1.00;;;;;;5033995;28;20291;-50
2022/10/11 01:07:03;;;;;;;;;;;19.20;1.00;;;;;;5034988;28;19921;-53
2022/10/11 01:09:30;;;;;;;;;;;19.20;1.00;;;;;;5034917;28;19921;-49
2022/10/11 01:11:58;;;;;;;;;;;19.20;1.00;;;;;;5035148;28;19924;-49
2022/10/11 01:14:25;;;;;;;;;;;19.10;1.00;;;;;;5034913;28;19925;-54
2022/10/11 01:16:56;;;;;;;;;;;19.10;1.00;;;;;;5035118;28;19921;-48
2022/10/11 01:19:34;;;;;;;;;;;19.10;1.00;;;;;;5034896;28;20389;-48
2022/10/11 01:22:04;;;;;;;;;;;19.10;1.00;;;;;;5034732;28;20012;-55
2022/10/11 01:24:46;;;;;;;;;;;19.10;1.00;;;;;;5034694;28;19991;-52
2022/10/11 01:27:48;;;;;;;;;;;19.00;1.00;;;;;;5034663;28;19921;-52
2022/10/11 01:30:28;;;;;;;;;;;19.00;1.00;;;;;;4993359;28;20335;-54
2022/10/11 01:33:14;;;;;;;;;;;19.00;1.00;;;;;;5029845;28;19927;-51
2022/10/11 01:35:40;;;;;;;;;;;19.00;1.00;;;;;;5034572;28;19928;-54
2022/10/11 01:38:12;;;;;;;;;;;19.00;1.00;;;;;;5034733;28;19967;-52
2022/10/11 01:40:42;;;;;;;;;;;19.00;1.00;;;;;;5035121;28;19921;-52
2022/10/11 01:43:09;;;;;;;;;;;18.90;1.00;;;;;;5034138;28;19928;-53
2022/10/11 01:45:36;;;;;;;;;;;19.00;1.00;;;;;;5034261;28;19925;-55
2022/10/11 01:48:07;;;;;;;;;;;18.90;1.00;;;;;;5034312;28;19991;-56
2022/10/11 01:50:45;;;;;;;;;;;18.90;1.00;;;;;;5034399;28;19921;-56
2022/10/11 01:53:20;;;;;;;;;;;18.90;1.00;;;;;;5033964;28;20275;-51
2022/10/11 01:55:54;;;;;;;;;;;18.90;1.00;;;;;;5034253;28;19920;-54
2022/10/11 01:58:39;;;;;;;;;;;18.90;1.00;;;;;;5034278;28;19920;-53
2022/10/11 02:01:21;;;;;;;;;;;18.90;1.00;;;;;;5034367;28;19928;-52
2022/10/11 02:03:54;;;;;;;;;;;18.90;1.00;;;;;;5034032;28;19921;-51
2022/10/11 02:06:50;;;;;;;;;;;18.90;1.00;;;;;;5034028;28;19928;-54
2022/10/11 02:09:23;;;;;;;;;;;18.90;1.00;;;;;;5025531;28;19924;-54
2022/10/11 02:11:52;;;;;;;;;;;18.90;1.00;;;;;;5033774;28;19921;-53
2022/10/11 02:14:23;;;;;;;;;;;18.90;1.00;;;;;;5033572;28;19920;-51
2022/10/11 02:16:55;;;;;;;;;;;18.80;1.00;;;;;;5034587;28;19929;-54
2022/10/11 02:19:25;;;;;;;;;;;18.80;1.00;;;;;;5033920;28;20337;-51
2022/10/11 02:21:53;;;;;;;;;;;18.80;1.00;;;;;;5033798;28;19948;-59
2022/10/11 02:24:27;;;;;;;;;;;18.80;1.00;;;;;;5033621;28;20375;-57
2022/10/11 02:26:55;;;;;;;;;;;18.80;1.00;;;;;;5033636;28;19928;-53
2022/10/11 02:29:23;;;;;;;;;;;18.90;1.00;;;;;;5034251;28;19972;-53
2022/10/11 02:31:50;;;;;;;;;;;18.80;1.00;;;;;;5033347;28;20378;-53
2022/10/11 02:34:22;;;;;;;;;;;18.80;1.00;;;;;;5033592;28;19929;-49
2022/10/11 02:37:07;;;;;;;;;;;18.80;1.00;;;;;;5033798;28;19948;-54
2022/10/11 02:39:54;;;;;;;;;;;18.80;1.00;;;;;;5033589;28;19921;-53
2022/10/11 02:42:27;;;;;;;;;;;18.80;1.00;;;;;;5026045;28;19928;-48
2022/10/11 02:44:59;;;;;;;;;;;18.80;1.00;;;;;;5033474;28;20435;-51
2022/10/11 02:47:28;;;;;;;;;;;18.80;1.00;;;;;;5033878;28;19956;-57
2022/10/11 02:49:54;;;;;;;;;;;18.80;1.00;;;;;;5034142;28;19975;-56
2022/10/11 02:52:21;;;;;;;;;;;18.70;1.00;;;;;;5033451;28;19921;-52
2022/10/11 02:54:48;;;;;;;;;;;18.80;1.00;;;;;;5033558;28;19925;-57
2022/10/11 02:57:14;;;;;;;;;;;18.80;1.00;;;;;;5033423;28;19928;-52
2022/10/11 02:59:41;;;;;;;;;;;18.80;1.00;;;;;;5034066;28;19921;-55
2022/10/11 03:02:08;;;;;;;;;;;18.70;1.00;;;;;;5033393;28;19921;-52
2022/10/11 03:04:35;;;;;;;;;;;18.70;1.00;;;;;;5033594;28;20020;-54
2022/10/11 03:07:02;;;;;;;;;;;18.70;1.00;;;;;;5033455;28;19964;-55
2022/10/11 03:09:29;;;;;;;;;;;18.70;1.00;;;;;;5033607;28;19921;-50
2022/10/11 03:11:55;;;;;;;;;;;18.70;1.00;;;;;;5033067;28;19921;-52
2022/10/11 03:14:22;;;;;;;;;;;18.70;1.00;;;;;;5033522;28;19952;-54
2022/10/11 03:16:49;;;;;;;;;;;18.60;1.00;;;;;;5033064;28;19925;-53
2022/10/11 03:19:17;;;;;;;;;;;18.60;1.00;;;;;;5033876;28;19925;-53
2022/10/11 03:21:45;;;;;;;;;;;18.70;1.00;;;;;;5032889;28;20359;-50
2022/10/11 03:24:12;;;;;;;;;;;18.60;1.00;;;;;;5033658;28;19927;-55
2022/10/11 03:26:38;;;;;;;;;;;18.60;1.00;;;;;;5034027;28;19983;-49
2022/10/11 03:29:05;;;;;;;;;;;18.60;1.00;;;;;;5036902;28;19921;-51
2022/10/11 03:31:32;;;;;;;;;;;18.60;1.00;;;;;;5036905;28;19975;-54
2022/10/11 03:33:59;;;;;;;;;;;18.60;1.00;;;;;;5037217;28;20256;-54
2022/10/11 03:36:25;;;;;;;;;;;18.60;1.00;;;;;;5036832;28;19932;-49
2022/10/11 03:38:52;;;;;;;;;;;18.60;1.00;;;;;;5036731;28;19921;-56
2022/10/11 03:41:19;;;;;;;;;;;18.60;1.00;;;;;;5037140;28;19921;-49
2022/10/11 03:43:45;;;;;;;;;;;18.60;1.00;;;;;;5036317;28;19924;-58
2022/10/11 03:46:12;;;;;;;;;;;18.60;1.00;;;;;;5037109;28;19921;-50
2022/10/11 03:48:39;;;;;;;;;;;18.60;1.00;;;;;;5036586;28;19929;-58
2022/10/11 03:51:05;;;;;;;;;;;18.60;1.00;;;;;;5036293;28;20378;-55
2022/10/11 03:53:32;;;;;;;;;;;18.60;1.00;;;;;;5036450;28;19924;-54
2022/10/11 03:55:59;;;;;;;;;;;18.50;1.00;;;;;;5036341;28;19925;-49
2022/10/11 03:58:33;;;;;;;;;;;18.50;1.00;;;;;;5037048;28;19921;-55
2022/10/11 04:00:59;;;;;;;;;;;18.50;1.00;;;;;;5036414;28;20751;-55
2022/10/11 04:03:26;;;;;;;;;;;18.50;1.00;;;;;;5036193;28;19921;-57
2022/10/11 04:05:53;;;;;;;;;;;18.50;1.00;;;;;;5036067;28;19943;-54
2022/10/11 04:08:20;;;;;;;;;;;18.50;1.00;;;;;;5036186;28;19921;-50
2022/10/11 04:10:47;;;;;;;;;;;18.50;1.00;;;;;;5034715;28;20027;-52
2022/10/11 04:13:13;;;;;;;;;;;18.50;1.00;;;;;;5036005;28;19921;-51
2022/10/11 04:15:40;;;;;;;;;;;18.50;1.00;;;;;;5036402;28;19925;-47
2022/10/11 04:18:07;;;;;;;;;;;18.50;1.00;;;;;;5035896;28;19932;-49
2022/10/11 04:20:34;;;;;;;;;;;18.40;1.00;;;;;;5042974;28;19921;-52
2022/10/11 04:23:01;;;;;;;;;;;18.40;1.00;;;;;;5055691;28;20023;-52
2022/10/11 04:25:27;;;;;;;;;;;18.40;1.00;;;;;;5055813;28;19925;-50
2022/10/11 04:27:54;;;;;;;;;;;18.40;1.00;;;;;;5055883;28;19927;-52
2022/10/11 04:30:21;;;;;;;;;;;18.40;1.00;;;;;;5055477;28;19924;-50
2022/10/11 04:32:48;;;;;;;;;;;18.40;1.00;;;;;;5055589;28;19990;-51
2022/10/11 04:35:14;;;;;;;;;;;18.50;1.00;;;;;;5055513;28;19920;-54
2022/10/11 04:37:41;;;;;;;;;;;18.50;1.00;;;;;;5047988;28;19947;-54
2022/10/11 04:40:09;;;;;;;;;;;18.50;1.00;;;;;;5056018;28;19921;-53
2022/10/11 04:42:35;;;;;;;;;;;18.40;1.00;;;;;;5055074;28;19925;-50
2022/10/11 04:45:02;;;;;;;;;;;18.40;1.00;;;;;;5054972;28;19993;-54
2022/10/11 04:47:29;;;;;;;;;;;18.40;1.00;;;;;;5055342;28;19960;-55
2022/10/11 04:49:55;;;;;;;;;;;18.40;1.00;;;;;;5055644;28;19920;-54
2022/10/11 04:52:22;;;;;;;;;;;18.40;1.00;;;;;;5055134;28;19925;-50
2022/10/11 04:54:51;;;;;;;;;;;18.40;1.00;;;;;;5055480;28;20003;-53
2022/10/11 04:57:18;;;;;;;;;;;18.40;1.00;;;;;;5055206;28;19967;-52
2022/10/11 04:59:45;;;;;;;;;;;18.40;1.00;;;;;;5050135;28;19921;-53
2022/10/11 05:02:15;;;;;;;;;;;18.30;1.00;;;;;;5032918;28;19921;-53
2022/10/11 05:04:42;;;;;;;;;;;18.30;1.00;;;;;;5014718;28;20032;-56
2022/10/11 05:07:09;;;;;;;;;;;18.40;1.00;;;;;;5014200;28;19931;-54
2022/10/11 05:09:36;;;;;;;;;;;18.30;1.00;;;;;;5015173;28;19925;-52
2022/10/11 05:12:03;;;;;;;;;;;18.30;1.00;;;;;;5014919;28;20360;-53
2022/10/11 05:14:29;;;;;;;;;;;18.30;1.00;;;;;;5015322;28;20357;-57
2022/10/11 05:16:56;;;;;;;;;;;18.30;1.00;;;;;;5015154;28;19967;-52
2022/10/11 05:19:23;;;;;;;;;;;18.30;1.00;;;;;;5015053;28;19921;-51
2022/10/11 05:21:49;;;;;;;;;;;18.30;1.00;;;;;;5014743;28;19926;-53
2022/10/11 05:24:16;;;;;;;;;;;18.40;1.00;;;;;;5015305;28;19921;-56
2022/10/11 05:26:43;;;;;;;;;;;18.40;1.00;;;;;;5015269;28;19922;-56
2022/10/11 05:29:10;;;;;;;;;;;18.40;1.00;;;;;;5015285;28;19925;-53
2022/10/11 05:31:37;;;;;;;;;;;18.40;1.00;;;;;;5014597;28;19922;-51
2022/10/11 05:34:03;;;;;;;;;;;18.40;1.00;;;;;;5015314;28;19933;-53
2022/10/11 05:36:30;;;;;;;;;;;18.40;1.00;;;;;;5014658;28;19929;-53
2022/10/11 05:38:57;;;;;;;;;;;18.40;1.00;;;;;;5014709;28;19925;-52
2022/10/11 05:41:24;;;;;;;;;;;18.30;1.00;;;;;;5014966;28;19921;-57
2022/10/11 05:43:50;;;;;;;;;;;18.40;1.00;;;;;;5014553;28;19956;-50
2022/10/11 05:46:17;;;;;;;;;;;18.40;1.00;;;;;;5015059;28;19921;-48
2022/10/11 05:48:44;;;;;;;;;;;18.40;1.00;;;;;;5014475;28;19921;-52
2022/10/11 05:51:11;;;;;;;;;;;18.40;1.00;;;;;;5014467;28;20379;-49
2022/10/11 05:53:38;;;;;;;;;;;18.30;1.00;;;;;;5014036;28;19929;-51
2022/10/11 05:56:15;;;;;;;;;;;18.30;1.00;;;;;;5013429;28;19928;-49
2022/10/11 05:58:42;;;;;;;;;;;18.30;1.00;;;;;;5014703;28;19952;-52
2022/10/11 06:01:15;;;;;;;;;;;18.30;1.00;;;;;;5013969;28;19925;-50
2022/10/11 06:03:42;;;;;;;;;;;18.30;1.00;;;;;;5011682;28;19956;-44
2022/10/11 06:06:09;;;;;;;;;;;18.30;1.00;;;;;;5006398;28;20342;-52
2022/10/11 06:08:36;;;;;;;;;;;18.30;1.00;;;;;;5009967;28;19968;-51
2022/10/11 06:11:13;;;;;;;;;;;18.30;1.00;;;;;;5014132;28;19967;-48
2022/10/11 06:13:40;;;;;;;;;;;18.30;1.00;;;;;;5013758;28;20298;-49
2022/10/11 06:16:07;;;;;;;;;;;18.30;1.00;;;;;;5014331;28;19921;-47
2022/10/11 06:18:34;;;;;;;;;;;18.30;1.00;;;;;;5013829;28;20035;-48
2022/10/11 06:21:01;;;;;;;;;;;18.30;1.00;;;;;;5014140;28;19929;-50
2022/10/11 06:23:28;;;;;;;;;;;18.30;1.00;;;;;;5013704;28;19936;-52
2022/10/11 06:25:58;;;;;;;;;;;18.20;1.00;;;;;;5014214;28;20016;-51
2022/10/11 06:28:26;;;;;;;;;;;18.30;1.00;;;;;;5013842;28;19922;-50
2022/10/11 06:30:54;;;;;;;;;;;18.30;1.00;;;;;;5014479;28;20040;-48
2022/10/11 06:33:21;;;;;;;;;;;18.20;1.00;;;;;;5013576;28;20409;-49
2022/10/11 06:35:48;;;;;;;;;;;18.20;1.00;;;;;;5014164;28;19961;-52
2022/10/11 06:38:15;;;;;;;;;;;18.20;1.00;;;;;;5013716;28;19967;-51
2022/10/11 06:40:42;;;;;;;;;;;18.20;1.00;;;;;;5013866;28;19929;-52
2022/10/11 06:43:08;;;;;;;;;;;18.20;1.00;;;;;;5013498;28;19925;-47
2022/10/11 06:45:35;;;;;;;;;;;18.20;1.00;;;;;;5013695;28;19933;-53
2022/10/11 06:48:04;;;;;;;;;;;18.20;1.00;;;;;;5013610;28;19929;-58
2022/10/11 06:50:31;;;;;;;;;;;18.20;1.00;;;;;;5013595;28;19921;-56
2022/10/11 06:53:18;;;;;;;;;;;18.20;1.00;;;;;;5013442;28;20340;-49
2022/10/11 06:55:46;;;;;;;;;;;18.10;1.00;;;;;;5014095;28;19922;-53
2022/10/11 06:58:12;;;;;;;;;;;18.10;1.00;;;;;;5013811;28;19972;-55
2022/10/11 07:00:39;;;;;;;;;;;18.10;1.00;;;;;;5013662;28;19929;-52
2022/10/11 07:03:06;;;;;;;;;;;18.10;1.00;;;;;;5016075;28;19922;-49
2022/10/11 07:05:33;;;;;;;;;;;18.10;1.00;;;;;;5017548;28;19944;-53
2022/10/11 07:08:00;;;;;;;;;;;18.10;1.00;;;;;;5017721;28;19992;-52
2022/10/11 07:10:27;;;;;;;;;;;18.10;1.00;;;;;;5018067;28;20371;-51
2022/10/11 07:12:54;;;;;;;;;;;18.10;1.00;;;;;;5017184;28;19988;-49
2022/10/11 07:15:20;;;;;;;;;;;18.10;1.00;;;;;;5017910;28;19928;-53
2022/10/11 07:17:47;;;;;;;;;;;18.10;1.00;;;;;;5017714;28;19972;-55
2022/10/11 07:20:14;;;;;;;;;;;18.10;1.00;;;;;;5017290;28;20016;-55
2022/10/11 07:22:41;;;;;;;;;;;18.10;1.00;;;;;;5016945;28;19925;-52
2022/10/11 07:25:07;;;;;;;;;;;18.10;1.00;;;;;;5017577;28;19921;-54
2022/10/11 07:27:34;;;;;;;;;;;18.10;1.00;;;;;;5017022;28;20356;-52
2022/10/11 07:30:01;;;;;;;;;;;18.10;1.00;;;;;;5017569;28;19921;-54
2022/10/11 07:32:27;;;;;;;;;;;18.10;1.00;;;;;;5016795;28;19922;-54
2022/10/11 07:34:55;;;;;;;;;;;18.10;1.00;;;;;;5016821;28;20284;-52
2022/10/11 07:37:22;;;;;;;;;;;18.10;1.00;;;;;;5016832;28;19922;-54
2022/10/11 07:39:48;;;;;;;;;;;18.10;1.00;;;;;;5017378;28;20028;-53
2022/10/11 07:42:15;;;;;;;;;;;18.10;1.00;;;;;;5016841;28;19925;-51
2022/10/11 07:44:42;;;;;;;;;;;18.10;1.00;;;;;;5017010;28;19980;-53
2022/10/11 07:47:08;;;;;;;;;;;18.10;1.00;;;;;;5017034;28;19925;-53
2022/10/11 07:49:37;;;;;;;;;;;18.10;1.00;;;;;;5016752;28;20322;-54
2022/10/11 07:52:04;;;;;;;;;;;18.10;1.00;;;;;;5016463;28;19953;-50
2022/10/11 07:54:31;;;;;;;;;;;18.10;1.00;;;;;;5016853;28;20335;-53
2022/10/11 07:56:58;;;;;;;;;;;18.10;1.00;;;;;;5016469;28;19921;-51
2022/10/11 07:59:25;;;;;;;;;;;18.10;1.00;;;;;;5016735;28;19921;-50
2022/10/11 08:01:51;;;;;;;;;;;18.10;1.00;;;;;;5016188;28;19921;-55
2022/10/11 08:04:20;;;;;;;;;;;18.20;1.00;;;;;;5016266;28;19921;-52
2022/10/11 08:06:46;;;;;;;;;;;18.10;1.00;;;;;;5017087;28;19928;-54
2022/10/11 08:09:18;;;;;;;;;;;18.10;1.00;;;;;;5016431;28;19922;-49
2022/10/11 08:11:45;;;;;;;;;;;18.10;1.00;;;;;;5016222;28;19956;-54
2022/10/11 08:14:12;;;;;;;;;;;18.10;1.00;;;;;;5016104;28;19921;-56
2022/10/11 08:16:39;;;;;;;;;;;18.20;1.00;;;;;;5016224;28;19921;-51
2022/10/11 08:19:06;;;;;;;;;;;18.20;1.00;;;;;;5016213;28;19965;-55
2022/10/11 08:21:33;;;;;;;;;;;18.20;1.00;;;;;;5016204;28;20348;-51
2022/10/11 08:24:01;;;;;;;;;;;18.20;1.00;;;;;;5015809;28;19970;-46
2022/10/11 08:26:27;;;;;;;;;;;18.20;1.00;;;;;;5016434;28;20368;-46
2022/10/11 08:28:54;;;;;;;;;;;18.30;1.00;;;;;;5016405;28;20286;-50
2022/10/11 08:31:21;;;;;;;;;;;18.40;1.00;;;;;;5015950;28;20317;-50
2022/10/11 08:33:48;;;;;;;;;;;18.50;1.00;;;;;;5015592;28;20287;-51
2022/10/11 08:36:14;;;;;;;;;;;18.50;1.00;;;;;;5016297;28;20294;-51
2022/10/11 08:38:41;;;;;;;;;;;18.60;1.00;;;;;;5015959;28;19925;-52
2022/10/11 08:41:26;;;;;;;;;;;18.60;1.00;;;;;;5015730;28;19921;-52
2022/10/11 08:44:05;;;;;;;;;;;18.70;1.00;;;;;;5015278;28;19921;-52
2022/10/11 08:46:37;;;;;;;;;;;18.80;1.00;;;;;;5015636;28;19992;-55
2022/10/11 08:49:05;;;;;;;;;;;18.80;1.00;;;;;;5015415;28;19921;-53
2022/10/11 08:51:44;;;;;;;;;;;18.90;1.00;;;;;;5015607;28;19921;-51
2022/10/11 08:54:25;;;;;;;;;;;18.90;1.00;;;;;;5015481;28;19933;-52
2022/10/11 08:56:52;;;;;;;;;;;18.90;1.00;;;;;;5016206;28;19933;-54
2022/10/11 08:59:37;;;;;;;;;;;19.00;1.00;;;;;;5015354;28;19975;-53
2022/10/11 09:02:19;;;;;;;;;;;19.00;1.00;;;;;;5015098;28;19922;-51
2022/10/11 09:04:48;;;;;;;;;;;19.10;1.00;;;;;;5015669;28;20387;-50
2022/10/11 09:07:23;;;;;;;;;;;19.10;1.00;;;;;;5015419;28;19922;-50
2022/10/11 09:10:04;;;;;;;;;;;19.10;1.00;;;;;;5015170;28;19921;-51
2022/10/11 09:12:33;;;;;;;;;;;19.10;1.00;;;;;;5014897;28;19936;-54
2022/10/11 09:15:09;;;;;;;;;;;19.20;1.00;;;;;;5015345;28;19928;-52
2022/10/11 09:17:55;;;;;;;;;;;19.20;1.00;;;;;;5015417;28;19921;-52
2022/10/11 09:20:36;;;;;;;;;;;19.20;1.00;;;;;;5015455;28;19944;-49
2022/10/11 09:23:09;;;;;;;;;;;19.30;1.00;;;;;;5014834;28;20376;-49
2022/10/11 09:25:43;;;;;;;;;;;19.30;1.00;;;;;;5014034;28;20035;-50
2022/10/11 09:28:41;;;;;;;;;;;19.30;1.00;;;;;;5015123;28;19976;-50
2022/10/11 09:31:08;;;;;;;;;;;19.40;1.00;;;;;;5013925;28;19928;-46
2022/10/11 09:33:48;;;;;;;;;;;19.40;1.00;;;;;;5014827;28;19922;-56
2022/10/11 09:36:21;;;;;;;;;;;19.30;1.00;;;;;;5014663;28;19921;-52
2022/10/11 09:38:53;;;;;;;;;;;19.30;1.00;;;;;;5014516;28;19948;-53
2022/10/11 09:41:20;;;;;;;;;;;19.40;1.00;;;;;;5015316;28;20027;-51
2022/10/11 09:43:48;;;;;;;;;;;19.40;1.00;;;;;;5014205;28;20354;-51
2022/10/11 09:46:18;;;;;;;;;;;19.40;1.00;;;;;;5015094;28;19922;-51
2022/10/11 09:48:45;;;;;;;;;;;19.50;1.00;;;;;;5014509;28;19921;-51
2022/10/11 09:51:15;;;;;;;;;;;19.50;1.00;;;;;;5014797;28;19929;-55
2022/10/11 09:53:55;;;;;;;;;;;19.50;1.00;;;;;;5014163;28;19926;-51
2022/10/11 09:56:24;;;;;;;;;;;19.50;1.00;;;;;;5014309;28;19956;-58
2022/10/11 09:59:09;;;;;;;;;;;19.60;1.00;;;;;;5014379;28;19979;-55
2022/10/11 10:01:36;;;;;;;;;;;19.60;1.00;;;;;;5014627;28;19921;-50
2022/10/11 10:04:04;;;;;;;;;;;19.60;1.00;;;;;;5014303;28;20011;-50
2022/10/11 10:06:31;;;;;;;;;;;19.60;1.00;;;;;;5014357;28;20318;-52
2022/10/11 10:09:17;;;;;;;;;;;19.70;1.00;;;;;;5014336;28;19929;-50
2022/10/11 10:11:44;;;;;;;;;;;19.70;1.00;;;;;;5013836;28;19922;-50
2022/10/11 10:14:37;;;;;;;;;;;19.70;1.00;;;;;;5014148;28;20422;-54
2022/10/11 10:17:14;;;;;;;;;;;19.70;1.00;;;;;;5013059;28;19975;-55
2022/10/11 10:19:46;;;;;;;;;;;19.70;1.00;;;;;;5014041;28;19921;-51
2022/10/11 10:22:17;;;;;;;;;;;19.70;1.00;;;;;;5014245;28;20119;-52
2022/10/11 10:24:46;;;;;;;;;;;19.70;1.00;;;;;;5013866;28;20017;-55
2022/10/11 10:27:13;;;;;;;;;;;19.70;1.00;;;;;;5013838;28;19921;-53
2022/10/11 10:29:39;;;;;;;;;;;19.70;1.00;;;;;;5013791;28;19925;-51
2022/10/11 10:32:15;;;;;;;;;;;19.60;1.00;;;;;;5013913;28;20414;-46
2022/10/11 10:35:04;;;;;;;;;;;19.60;1.00;;;;;;5013834;28;19926;-53
2022/10/11 10:37:33;;;;;;;;;;;19.60;1.00;;;;;;5010993;28;19929;-55
2022/10/11 10:40:29;;;;;;;;;;;19.70;1.00;;;;;;5014419;28;20371;-51
2022/10/11 10:42:56;;;;;;;;;;;19.70;1.00;;;;;;5008489;28;20397;-49
2022/10/11 10:45:26;;;;;;;;;;;19.60;1.00;;;;;;5014107;28;20048;-53
2022/10/11 10:47:59;;;;;;;;;;;19.70;1.00;;;;;;5013683;28;19921;-50
2022/10/11 10:50:31;;;;;;;;;;;19.60;1.00;;;;;;5013881;28;19936;-52
2022/10/11 10:52:58;;;;;;;;;;;19.70;1.00;;;;;;5013591;28;19928;-57
2022/10/11 10:55:24;;;;;;;;;;;19.70;1.00;;;;;;5013853;28;19921;-56
2022/10/11 10:57:54;;;;;;;;;;;19.70;1.00;;;;;;5013390;28;19976;-52
2022/10/11 11:00:22;;;;;;;;;;;19.60;1.00;;;;;;5013627;28;19921;-49
2022/10/11 11:02:55;;;;;;;;;;;19.70;1.00;;;;;;5013310;28;19975;-54
2022/10/11 11:05:35;;;;;;;;;;;19.70;1.00;;;;;;5014187;28;19975;-54
2022/10/11 11:08:14;;;;;;;;;;;19.70;1.00;;;;;;5013307;28;20348;-50
2022/10/11 11:10:48;;;;;;;;;;;19.70;1.00;;;;;;5014054;28;19925;-52
2022/10/11 11:13:22;;;;;;;;;;;19.70;1.00;;;;;;5013398;28;20020;-51
2022/10/11 11:15:49;;;;;;;;;;;19.70;1.00;;;;;;5013325;28;19921;-56
2022/10/11 11:18:32;;;;;;;;;;;19.70;1.00;;;;;;5013239;28;20438;-55
2022/10/11 11:21:07;;;;;;;;;;;19.80;1.00;;;;;;5013738;28;20433;-54
2022/10/11 11:23:53;;;;;;;;;;;19.80;1.00;;;;;;4995659;28;20280;-52
2022/10/11 11:26:23;;;;;;;;;;;19.80;1.00;;;;;;5013762;28;20089;-55
2022/10/11 11:29:02;;;;;;;;;;;19.80;1.00;;;;;;5013260;28;19925;-55
2022/10/11 11:31:44;;;;;;;;;;;19.80;1.00;;;;;;5013597;28;19925;-53
2022/10/11 11:34:18;;;;;;;;;;;19.80;1.00;;;;;;5013675;28;19928;-54
2022/10/11 11:36:48;;;;;;;;;;;19.70;1.00;;;;;;5013332;28;19921;-49
2022/10/11 11:39:18;;;;;;;;;;;19.70;1.00;;;;;;5013408;28;19968;-53
2022/10/11 11:42:07;;;;;;;;;;;19.70;1.00;;;;;;5013012;28;19921;-53
2022/10/11 11:44:38;;;;;;;;;;;19.60;1.00;;;;;;5013289;28;19921;-51
2022/10/11 11:47:07;;;;;;;;;;;19.60;1.00;;;;;;5013913;28;19921;-55
2022/10/11 11:49:35;;;;;;;;;;;19.60;1.00;;;;;;5016183;28;20319;-55
2022/10/11 11:52:04;;;;;;;;;;;19.60;1.00;;;;;;5016491;28;19925;-52
2022/10/11 11:54:39;;;;;;;;;;;19.60;1.00;;;;;;5016628;28;19932;-51
2022/10/11 11:57:11;;;;;;;;;;;19.60;1.00;;;;;;5017091;28;19968;-52
2022/10/11 11:59:47;;;;;;;;;;;19.60;1.00;;;;;;5016579;28;19929;-53
2022/10/11 12:02:40;;;;;;;;;;;19.60;1.00;;;;;;5016658;28;20346;-56
2022/10/11 12:05:08;;;;;;;;;;;19.60;1.00;;;;;;5015242;28;19933;-57
2022/10/11 12:07:53;;;;;;;;;;;19.60;1.00;;;;;;5016158;28;19921;-55
2022/10/11 12:10:26;;;;;;;;;;;19.60;1.00;;;;;;5016576;28;19925;-52
2022/10/11 12:13:05;;;;;;;;;;;19.50;1.00;;;;;;5016236;28;19929;-54
2022/10/11 12:15:32;;;;;;;;;;;19.50;1.00;;;;;;5016844;28;19921;-59
2022/10/11 12:18:01;;;;;;;;;;;19.50;1.00;;;;;;5016345;28;19956;-50
2022/10/11 12:20:30;;;;;;;;;;;19.50;1.00;;;;;;5016713;28;19921;-48
2022/10/11 12:23:02;;;;;;;;;;;19.50;1.00;;;;;;5015754;28;19921;-51
2022/10/11 12:25:34;;;;;;;;;;;19.50;1.00;;;;;;5016390;28;19921;-49
2022/10/11 12:28:21;;;;;;;;;;;19.50;1.00;;;;;;5016019;28;19922;-48
2022/10/11 12:30:52;;;;;;;;;;;19.50;1.00;;;;;;5016313;28;20011;-54
2022/10/11 12:33:20;;;;;;;;;;;19.50;1.00;;;;;;5015263;28;19961;-52
2022/10/11 12:35:54;;;;;;;;;;;19.50;1.00;;;;;;5016232;28;19922;-57
2022/10/11 12:38:23;;;;;;;;;;;19.50;1.00;;;;;;5015717;28;20290;-53
2022/10/11 12:40:53;;;;;;;;;;;19.50;1.00;;;;;;5016005;28;20264;-49
2022/10/11 12:43:30;;;;;;;;;;;19.50;1.00;;;;;;5015465;28;19925;-54
2022/10/11 12:46:18;;;;;;;;;;;19.40;1.00;;;;;;5016405;28;20407;-53
2022/10/11 12:49:08;;;;;;;;;;;19.40;1.00;;;;;;5015962;28;20008;-55
2022/10/11 12:51:41;;;;;;;;;;;19.40;1.00;;;;;;5005873;28;20334;-52
2022/10/11 12:54:17;;;;;;;;;;;19.40;1.00;;;;;;5015493;28;20012;-56
2022/10/11 12:57:01;;;;;;;;;;;19.40;1.00;;;;;;5014678;28;19921;-54
2022/10/11 12:59:29;;;;;;;;;;;19.40;1.00;;;;;;5015909;28;19987;-49
2022/10/11 13:01:58;;;;;;;;;;;19.40;1.00;;;;;;5015587;28;19922;-53
2022/10/11 13:04:26;;;;;;;;;;;19.30;1.00;;;;;;5015265;28;19927;-52
2022/10/11 13:06:55;;;;;;;;;;;19.40;1.00;;;;;;5015453;28;20247;-49
2022/10/11 13:09:26;;;;;;;;;;;19.40;1.00;;;;;;5015253;28;19975;-51
2022/10/11 13:12:12;;;;;;;;;;;19.30;1.00;;;;;;5015415;28;19937;-56
2022/10/11 13:14:43;;;;;;;;;;;19.30;1.00;;;;;;5015585;28;20371;-57
2022/10/11 13:17:23;;;;;;;;;;;19.30;1.00;;;;;;5015199;28;19932;-55
2022/10/11 13:19:57;;;;;;;;;;;19.30;1.00;;;;;;5014933;28;19921;-53
2022/10/11 13:22:24;;;;;;;;;;;19.30;1.00;;;;;;5014758;28;20008;-57
2022/10/11 13:24:54;;;;;;;;;;;19.30;1.00;;;;;;5015429;28;19933;-50
2022/10/11 13:27:23;;;;;;;;;;;19.30;1.00;;;;;;5015129;28;20012;-57
2022/10/11 13:29:50;;;;;;;;;;;19.40;1.00;;;;;;5014779;28;19928;-54
2022/10/11 13:32:22;;;;;;;;;;;19.30;1.00;;;;;;5021557;28;19920;-57
2022/10/11 13:34:53;;;;;;;;;;;19.30;1.00;;;;;;5034071;28;19921;-54
2022/10/11 13:37:25;;;;;;;;;;;19.30;1.00;;;;;;5016441;28;20008;-57
2022/10/11 13:39:53;;;;;;;;;;;19.30;1.00;;;;;;5027425;28;20268;-52
2022/10/11 13:42:24;;;;;;;;;;;19.20;1.00;;;;;;5034258;28;19929;-57
2022/10/11 13:44:51;;;;;;;;;;;19.10;1.00;;;;;;5034421;28;19931;-52
2022/10/11 13:47:19;;;;;;;;;;;19.10;1.00;;;;;;5034207;28;19920;-55
2022/10/11 13:49:49;;;;;;;;;;;19.10;1.00;;;;;;5034534;28;19996;-53
2022/10/11 13:52:22;;;;;;;;;;;19.20;1.00;;;;;;5033885;28;19921;-59
2022/10/11 13:54:59;;;;;;;;;;;19.20;1.00;;;;;;5034136;28;20024;-49
2022/10/11 13:57:45;;;;;;;;;;;19.30;1.00;;;;;;5034108;28;19921;-56
2022/10/11 14:00:16;;;;;;;;;;;19.30;1.00;;;;;;5034106;28;19921;-56
2022/10/11 14:03:00;;;;;;;;;;;19.30;1.00;;;;;;5034005;28;19975;-52
2022/10/11 14:05:29;;;;;;;;;;;19.30;1.00;;;;;;5033307;28;20279;-53
2022/10/11 14:08:00;;;;;;;;;;;19.30;1.00;;;;;;5033676;28;19956;-54
2022/10/11 14:10:27;;;;;;;;;;;19.30;1.00;;;;;;5032312;28;19921;-55
2022/10/11 14:12:58;;;;;;;;;;;19.30;1.00;;;;;;5033559;28;19975;-53
2022/10/11 14:15:35;;;;;;;;;;;19.40;1.00;;;;;;5033732;28;19921;-55
2022/10/11 14:18:21;;;;;;;;;;;19.40;1.00;;;;;;5033794;28;19921;-50
2022/10/11 14:20:48;;;;;;;;;;;19.40;1.00;;;;;;5034225;28;19928;-51
2022/10/11 14:23:14;;;;;;;;;;;19.40;1.00;;;;;;5033457;28;19921;-52
2022/10/11 14:25:42;;;;;;;;;;;19.40;1.00;;;;;;5033725;28;19932;-51
2022/10/11 14:28:10;;;;;;;;;;;19.40;1.00;;;;;;5033891;28;19925;-53
2022/10/11 14:30:39;;;;;;;;;;;19.40;1.00;;;;;;5033758;28;19922;-52
2022/10/11 14:33:05;;;;;;;;;;;19.40;1.00;;;;;;5033341;28;19975;-50
2022/10/11 14:35:33;;;;;;;;;;;19.40;1.00;;;;;;5034373;28;20263;-54
2022/10/11 14:38:00;;;;;;;;;;;19.40;1.00;;;;;;5033913;28;20015;-55
2022/10/11 14:40:28;;;;;;;;;;;19.50;1.00;;;;;;5033777;28;20306;-54
2022/10/11 14:42:55;;;;;;;;;;;19.50;1.00;;;;;;5032853;28;19922;-51
2022/10/11 14:45:22;;;;;;;;;;;19.50;1.00;;;;;;5025009;28;19979;-53
2022/10/11 14:47:49;;;;;;;;;;;19.30;1.00;;;;;;5033455;28;20020;-50
2022/10/11 14:50:18;;;;;;;;;;;19.20;1.00;;;;;;5033882;28;19925;-53
2022/10/11 14:52:45;;;;;;;;;;;19.20;1.00;;;;;;5052314;28;20282;-51